createdAt,value
2023-03-31T00:01:42.121Z,3.00
2023-03-31T00:04:23.543Z,3.28
2023-03-31T00:07:00.469Z,3.53
2023-03-31T00:09:29.900Z,3.42
2023-03-31T00:11:56.746Z,3.10
2023-03-31T00:14:29.493Z,3.00
2023-03-31T00:17:03.564Z,3.40
2023-03-31T00:19:39.570Z,3.15
2023-03-31T00:22:12.527Z,3.00
2023-03-31T00:24:39.152Z,3.00
2023-03-31T00:27:25.662Z,3.90
2023-03-31T00:29:53.096Z,3.22
2023-03-31T00:32:19.806Z,3.80
2023-03-31T00:34:53.514Z,2.97
2023-03-31T00:37:20.152Z,3.05
2023-03-31T00:39:46.809Z,3.83
2023-03-31T00:42:20.495Z,2.95
2023-03-31T00:45:21.425Z,2.80
2023-03-31T00:47:53.991Z,3.10
2023-03-31T00:50:35.492Z,2.65
2023-03-31T00:53:12.954Z,2.50
2023-03-31T00:55:54.504Z,2.60
2023-03-31T00:58:34.602Z,2.58
2023-03-31T01:01:09.633Z,2.55
2023-03-31T01:03:38.415Z,2.80
2023-03-31T01:06:16.549Z,2.72
2023-03-31T01:08:50.588Z,2.83
2023-03-31T01:11:21.792Z,2.80
2023-03-31T01:13:58.596Z,2.67
2023-03-31T01:16:25.467Z,2.60
2023-03-31T01:18:52.313Z,2.58
2023-03-31T01:21:33.851Z,2.58
2023-03-31T01:24:49.928Z,2.10
2023-03-31T01:27:33.804Z,2.97
2023-03-31T01:30:43.984Z,2.00
2023-03-31T01:33:39.347Z,1.90
2023-03-31T01:36:34.714Z,1.95
2023-03-31T01:39:42.807Z,2.35
2023-03-31T01:42:28.621Z,2.03
2023-03-31T01:45:06.436Z,2.90
2023-03-31T01:47:42.187Z,2.00
2023-03-31T01:50:15.970Z,2.03
2023-03-31T01:52:56.493Z,2.05
2023-03-31T01:55:25.548Z,2.00
2023-03-31T01:58:16.954Z,1.90
2023-03-31T02:00:52.081Z,1.80
2023-03-31T02:03:25.237Z,2.00
2023-03-31T02:05:55.591Z,1.83
2023-03-31T02:08:30.268Z,1.65
2023-03-31T02:10:58.617Z,2.58
2023-03-31T02:13:28.239Z,1.90
2023-03-31T02:16:01.555Z,1.85
2023-03-31T02:18:33.238Z,1.70
2023-03-31T02:21:01.206Z,1.90
2023-03-31T02:23:31.883Z,1.65
2023-03-31T02:26:04.239Z,1.80
2023-03-31T02:28:31.664Z,2.38
2023-03-31T02:31:10.406Z,2.00
2023-03-31T02:33:37.435Z,2.42
2023-03-31T02:36:05.150Z,1.70
2023-03-31T02:38:39.021Z,2.20
2023-03-31T02:41:06.411Z,2.17
2023-03-31T02:43:33.458Z,2.03
2023-03-31T02:46:00.131Z,2.05
2023-03-31T02:48:30.892Z,2.97
2023-03-31T02:51:01.892Z,2.03
2023-03-31T02:53:57.871Z,2.13
2023-03-31T02:57:08.116Z,1.73
2023-03-31T03:02:29.148Z,1.67
2023-03-31T03:05:20.318Z,2.00
2023-03-31T03:07:56.971Z,1.60
2023-03-31T03:10:56.596Z,1.77
2023-03-31T03:13:47.341Z,2.10
2023-03-31T03:16:21.784Z,1.90
2023-03-31T03:19:07.527Z,1.75
2023-03-31T03:21:34.630Z,2.00
2023-03-31T03:24:01.796Z,1.90
2023-03-31T03:26:28.737Z,2.15
2023-03-31T03:28:56.706Z,1.55
2023-03-31T03:31:26.185Z,2.47
2023-03-31T03:33:53.720Z,1.73
2023-03-31T03:36:20.473Z,1.80
2023-03-31T03:38:47.253Z,1.95
2023-03-31T03:41:14.068Z,1.80
2023-03-31T03:43:40.956Z,1.77
2023-03-31T03:46:07.849Z,1.58
2023-03-31T03:48:34.694Z,1.77
2023-03-31T03:51:01.641Z,1.80
2023-03-31T03:53:28.502Z,2.28
2023-03-31T03:55:55.445Z,1.77
2023-03-31T03:58:22.177Z,2.00
2023-03-31T04:00:49.304Z,1.70
2023-03-31T04:03:16.678Z,2.10
2023-03-31T04:05:43.630Z,2.08
2023-03-31T04:08:10.633Z,1.95
2023-03-31T04:10:42.643Z,2.20
2023-03-31T04:13:19.468Z,2.75
2023-03-31T04:15:46.798Z,2.30
2023-03-31T04:18:22.944Z,2.05
2023-03-31T04:21:03.959Z,1.60
2023-03-31T04:23:34.577Z,1.70
2023-03-31T04:26:02.744Z,1.98
2023-03-31T04:28:35.086Z,2.03
2023-03-31T04:31:03.451Z,1.77
2023-03-31T04:33:30.548Z,1.80
2023-03-31T04:35:57.370Z,1.75
2023-03-31T04:38:27.115Z,1.90
2023-03-31T04:40:54.218Z,2.10
2023-03-31T04:43:21.416Z,1.83
2023-03-31T04:45:48.103Z,2.75
2023-03-31T04:48:14.842Z,2.70
2023-03-31T04:50:41.497Z,2.40
2023-03-31T04:53:08.352Z,2.00
2023-03-31T04:55:35.282Z,2.22
2023-03-31T04:58:01.944Z,1.90
2023-03-31T05:00:29.009Z,1.95
2023-03-31T05:02:56.068Z,1.85
2023-03-31T05:05:22.936Z,1.77
2023-03-31T05:07:49.756Z,2.05
2023-03-31T05:10:16.565Z,2.05
2023-03-31T05:12:43.196Z,2.35
2023-03-31T05:15:10.603Z,2.05
2023-03-31T05:17:38.090Z,2.22
2023-03-31T05:20:06.865Z,2.10
2023-03-31T05:22:38.257Z,2.45
2023-03-31T05:25:07.947Z,1.90
2023-03-31T05:27:35.688Z,1.98
2023-03-31T05:30:03.395Z,2.00
2023-03-31T05:32:30.669Z,2.55
2023-03-31T05:34:57.841Z,2.65
2023-03-31T05:37:25.308Z,2.63
2023-03-31T05:39:52.611Z,2.15
2023-03-31T05:42:19.909Z,2.45
2023-03-31T05:44:46.634Z,2.33
2023-03-31T05:47:13.727Z,2.47
2023-03-31T05:49:40.665Z,2.15
2023-03-31T05:52:08.218Z,2.65
2023-03-31T05:54:34.922Z,2.33
2023-03-31T05:57:01.802Z,2.72
2023-03-31T05:59:28.564Z,2.40
2023-03-31T06:01:55.506Z,2.30
2023-03-31T06:04:22.387Z,2.10
2023-03-31T06:06:50.329Z,2.17
2023-03-31T06:09:18.031Z,2.38
2023-03-31T06:11:44.787Z,2.15
2023-03-31T06:14:11.740Z,2.15
2023-03-31T06:16:38.491Z,2.42
2023-03-31T06:19:05.343Z,2.70
2023-03-31T06:21:32.099Z,2.20
2023-03-31T06:24:00.407Z,2.30
2023-03-31T06:26:27.515Z,2.53
2023-03-31T06:28:54.401Z,1.73
2023-03-31T06:31:23.504Z,2.47
2023-03-31T06:33:50.813Z,2.22
2023-03-31T06:36:20.400Z,2.40
2023-03-31T06:38:47.644Z,2.63
2023-03-31T06:41:15.944Z,1.98
2023-03-31T06:43:42.782Z,2.03
2023-03-31T06:46:09.961Z,2.65
2023-03-31T06:48:37.180Z,2.65
2023-03-31T06:51:06.268Z,1.85
2023-03-31T06:53:33.552Z,1.88
2023-03-31T06:56:01.116Z,1.67
2023-03-31T06:58:30.601Z,2.28
2023-03-31T07:00:58.494Z,2.05
2023-03-31T07:03:25.561Z,2.13
2023-03-31T07:05:53.547Z,2.00
2023-03-31T07:08:20.557Z,1.98
2023-03-31T07:10:48.922Z,2.97
2023-03-31T07:13:17.273Z,2.30
2023-03-31T07:15:46.544Z,1.92
2023-03-31T07:18:15.662Z,2.70
2023-03-31T07:20:43.663Z,2.10
2023-03-31T07:23:10.550Z,1.80
2023-03-31T07:25:37.239Z,2.33
2023-03-31T07:28:05.523Z,2.10
2023-03-31T07:30:32.782Z,2.03
2023-03-31T07:32:59.869Z,2.20
2023-03-31T07:35:26.676Z,2.00
2023-03-31T07:37:54.314Z,2.15
2023-03-31T07:40:25.115Z,2.35
2023-03-31T07:42:52.741Z,2.10
2023-03-31T07:45:24.968Z,1.90
2023-03-31T07:47:52.053Z,2.33
2023-03-31T07:50:19.574Z,1.63
2023-03-31T07:52:47.418Z,1.75
2023-03-31T07:55:14.774Z,2.20
2023-03-31T07:57:42.188Z,2.10
2023-03-31T08:00:12.452Z,2.08
2023-03-31T08:02:43.058Z,1.70
2023-03-31T08:05:12.114Z,2.20
2023-03-31T08:07:41.652Z,2.25
2023-03-31T08:10:10.822Z,2.15
2023-03-31T08:12:37.536Z,1.90
2023-03-31T08:15:04.721Z,1.73
2023-03-31T08:17:31.675Z,1.73
2023-03-31T08:20:01.647Z,2.33
2023-03-31T08:22:30.554Z,2.20
2023-03-31T08:24:57.414Z,2.20
2023-03-31T08:27:26.355Z,2.10
2023-03-31T08:29:53.053Z,1.77
2023-03-31T08:32:23.817Z,1.75
2023-03-31T08:34:51.629Z,1.95
2023-03-31T08:37:18.475Z,2.00
2023-03-31T08:39:45.677Z,1.85
2023-03-31T08:42:18.764Z,2.20
2023-03-31T08:45:08.886Z,1.90
2023-03-31T08:47:37.803Z,1.77
2023-03-31T08:50:11.300Z,1.52
2023-03-31T08:52:44.263Z,1.92
2023-03-31T08:55:20.038Z,1.75
2023-03-31T08:58:12.992Z,1.63
2023-03-31T09:01:07.253Z,2.10
2023-03-31T09:03:42.800Z,1.63
2023-03-31T09:06:18.549Z,1.80
2023-03-31T09:08:45.781Z,1.75
2023-03-31T09:11:36.963Z,1.80
2023-03-31T09:14:13.941Z,1.58
2023-03-31T09:16:40.798Z,1.38
2023-03-31T09:19:17.360Z,1.63
2023-03-31T09:21:49.688Z,1.50
2023-03-31T09:24:36.967Z,1.40
2023-03-31T09:27:07.278Z,2.28
2023-03-31T09:29:43.887Z,1.40
2023-03-31T09:32:28.220Z,1.50
2023-03-31T09:35:25.343Z,2.03
2023-03-31T09:37:53.752Z,1.70
2023-03-31T09:40:26.098Z,2.20
2023-03-31T09:43:05.665Z,1.65
2023-03-31T09:45:34.045Z,2.15
2023-03-31T09:48:11.452Z,1.73
2023-03-31T09:50:52.291Z,2.00
2023-03-31T09:53:29.643Z,2.15
2023-03-31T09:56:01.753Z,1.90
2023-03-31T09:58:28.693Z,1.58
2023-03-31T10:01:04.680Z,1.92
2023-03-31T10:03:37.149Z,1.80
2023-03-31T10:06:11.481Z,2.10
2023-03-31T10:08:59.917Z,2.20
2023-03-31T10:11:29.812Z,2.10
2023-03-31T10:14:11.106Z,2.22
2023-03-31T10:16:57.450Z,2.20
2023-03-31T10:19:30.255Z,2.10
2023-03-31T10:22:02.928Z,1.77
2023-03-31T10:24:42.736Z,1.88
2023-03-31T10:27:30.222Z,2.08
2023-03-31T10:30:02.334Z,2.00
2023-03-31T10:32:31.676Z,2.58
2023-03-31T10:35:05.287Z,2.17
2023-03-31T10:37:34.650Z,1.90
2023-03-31T10:40:14.790Z,2.00
2023-03-31T10:42:46.482Z,2.30
2023-03-31T10:45:35.710Z,2.22
2023-03-31T10:48:04.244Z,2.00
2023-03-31T10:50:36.945Z,1.80
2023-03-31T10:53:15.433Z,2.00
2023-03-31T10:56:08.073Z,2.30
2023-03-31T10:59:18.682Z,1.90
2023-03-31T11:02:04.153Z,1.95
2023-03-31T11:04:36.319Z,1.80
2023-03-31T11:07:23.953Z,1.73
2023-03-31T11:10:18.253Z,2.10
2023-03-31T11:13:02.944Z,2.25
2023-03-31T11:15:48.800Z,1.90
2023-03-31T11:18:46.849Z,1.90
2023-03-31T11:21:27.282Z,2.10
2023-03-31T11:24:18.304Z,2.75
2023-03-31T11:27:09.954Z,2.15
2023-03-31T11:30:04.629Z,1.85
2023-03-31T11:32:37.490Z,1.95
2023-03-31T11:35:07.598Z,1.65
2023-03-31T11:38:13.071Z,3.67
2023-03-31T11:40:49.293Z,2.38
2023-03-31T11:43:33.842Z,1.95
2023-03-31T11:46:21.469Z,1.92
2023-03-31T11:48:59.269Z,1.67
2023-03-31T11:51:49.177Z,1.60
2023-03-31T11:54:23.924Z,2.45
2023-03-31T11:56:52.288Z,2.05
2023-03-31T11:59:22.458Z,2.10
2023-03-31T12:02:18.694Z,1.83
2023-03-31T12:04:51.769Z,1.70
2023-03-31T12:07:26.259Z,1.65
2023-03-31T12:10:07.756Z,1.73
2023-03-31T12:12:43.307Z,1.95
2023-03-31T12:15:24.786Z,2.10
2023-03-31T12:18:03.252Z,1.88
2023-03-31T12:20:47.129Z,2.40
2023-03-31T12:23:22.453Z,1.83
2023-03-31T12:26:16.479Z,2.03
2023-03-31T12:28:44.947Z,2.00
2023-03-31T12:31:20.598Z,2.35
2023-03-31T12:34:00.622Z,1.83
2023-03-31T12:36:55.465Z,1.90
2023-03-31T12:39:51.388Z,2.15
2023-03-31T12:42:48.459Z,2.10
2023-03-31T12:45:31.461Z,1.95
2023-03-31T12:48:29.952Z,2.45
2023-03-31T12:51:20.409Z,1.98
2023-03-31T12:54:22.839Z,2.58
2023-03-31T12:57:01.883Z,2.65
2023-03-31T12:59:37.494Z,2.80
2023-03-31T13:02:10.149Z,2.83
2023-03-31T13:04:38.066Z,3.13
2023-03-31T13:07:27.273Z,2.10
2023-03-31T13:09:59.007Z,2.50
2023-03-31T13:12:28.629Z,2.63
2023-03-31T13:17:58.400Z,2.28
2023-03-31T13:20:32.484Z,2.30
2023-03-31T13:23:05.358Z,2.25
2023-03-31T13:25:53.223Z,2.47
2023-03-31T13:28:22.668Z,2.60
2023-03-31T13:31:02.238Z,3.03
2023-03-31T13:33:51.194Z,2.97
2023-03-31T13:36:18.094Z,3.42
2023-03-31T13:39:06.325Z,2.70
2023-03-31T13:42:18.190Z,3.58
2023-03-31T13:45:10.919Z,2.10
2023-03-31T13:48:18.618Z,1.70
2023-03-31T13:51:13.623Z,1.83
2023-03-31T13:54:10.189Z,2.65
2023-03-31T13:57:03.599Z,1.90
2023-03-31T13:59:48.694Z,2.40
2023-03-31T14:02:27.704Z,2.15
2023-03-31T14:05:21.565Z,2.15
2023-03-31T14:07:54.400Z,2.03
2023-03-31T14:10:31.684Z,1.70
2023-03-31T14:13:13.162Z,1.90
2023-03-31T14:15:52.150Z,1.15
2023-03-31T14:18:26.533Z,1.02
2023-03-31T14:21:31.054Z,1.55
2023-03-31T14:24:13.532Z,1.70
2023-03-31T14:27:30.310Z,1.60
2023-03-31T14:30:19.641Z,2.15
2023-03-31T14:33:18.901Z,2.90
2023-03-31T14:36:28.385Z,2.50
2023-03-31T14:39:03.071Z,2.08
2023-03-31T14:41:30.114Z,2.05
2023-03-31T14:44:00.636Z,1.40
2023-03-31T14:46:30.047Z,2.08
2023-03-31T14:48:57.743Z,1.58
2023-03-31T14:51:30.878Z,2.95
2023-03-31T14:54:01.616Z,5.30
2023-03-31T14:56:36.249Z,2.15
2023-03-31T14:59:03.754Z,2.03
2023-03-31T15:01:34.610Z,2.55
2023-03-31T15:04:07.278Z,2.78
2023-03-31T15:06:34.154Z,2.42
2023-03-31T15:09:04.043Z,3.22
2023-03-31T15:11:31.579Z,3.33
2023-03-31T15:14:05.664Z,1.95
2023-03-31T15:16:45.107Z,2.83
2023-03-31T15:19:16.344Z,2.85
2023-03-31T15:21:44.022Z,3.78
2023-03-31T15:24:13.297Z,3.00
2023-03-31T15:26:58.435Z,2.20
2023-03-31T15:29:28.350Z,2.40
2023-03-31T15:31:58.480Z,2.17
2023-03-31T15:36:56.493Z,2.20
2023-03-31T15:39:28.854Z,1.90
2023-03-31T15:41:57.479Z,2.30
2023-03-31T15:44:35.604Z,2.28
2023-03-31T15:47:09.970Z,2.53
2023-03-31T15:49:36.741Z,2.30
2023-03-31T15:52:03.540Z,2.20
2023-03-31T15:54:42.305Z,2.10
2023-03-31T15:57:14.755Z,2.30
2023-03-31T15:59:56.022Z,2.70
2023-03-31T16:02:26.629Z,3.63
2023-03-31T16:04:59.420Z,3.40
2023-03-31T16:07:30.182Z,4.22
2023-03-31T16:10:03.629Z,4.20
2023-03-31T16:12:36.285Z,3.80
2023-03-31T16:15:09.856Z,3.65
2023-03-31T16:17:47.597Z,4.13
2023-03-31T16:20:29.893Z,3.72
2023-03-31T16:22:59.861Z,3.15
2023-03-31T16:25:29.561Z,3.50
2023-03-31T16:27:59.894Z,2.53
2023-03-31T16:33:09.194Z,3.60
2023-03-31T16:35:41.856Z,3.22
2023-03-31T16:38:11.132Z,5.22
2023-03-31T16:40:40.632Z,8.32
2023-03-31T16:43:11.605Z,3.95
2023-03-31T16:45:38.521Z,3.22
2023-03-31T16:48:15.531Z,5.75
2023-03-31T16:50:45.003Z,3.63
2023-03-31T16:53:19.002Z,4.30
2023-03-31T16:55:46.474Z,3.10
2023-03-31T16:58:13.287Z,4.18
2023-03-31T17:00:41.444Z,4.43
2023-03-31T17:03:10.322Z,4.43
2023-03-31T17:05:42.234Z,4.07
2023-03-31T17:08:10.189Z,3.00
2023-03-31T17:10:38.931Z,3.33
2023-03-31T17:13:06.862Z,7.22
2023-03-31T17:15:36.423Z,3.42
2023-03-31T17:18:04.620Z,4.20
2023-03-31T17:20:32.755Z,3.70
2023-03-31T17:22:59.904Z,3.95
2023-03-31T17:25:26.871Z,4.25
2023-03-31T17:27:55.885Z,4.68
2023-03-31T17:30:23.634Z,4.78
2023-03-31T17:32:51.570Z,5.80
2023-03-31T17:35:21.687Z,4.72
2023-03-31T17:37:53.917Z,4.73
2023-03-31T17:40:21.481Z,4.97
2023-03-31T17:42:48.265Z,5.65
2023-03-31T17:45:15.221Z,5.38
2023-03-31T17:47:42.686Z,6.43
2023-03-31T17:50:10.193Z,5.40
2023-03-31T17:52:39.349Z,6.70
2023-03-31T17:55:06.372Z,5.68
2023-03-31T18:00:25.452Z,8.25
2023-03-31T18:02:52.519Z,8.02
2023-03-31T18:05:19.738Z,5.15
2023-03-31T18:07:48.763Z,5.13
2023-03-31T18:10:15.613Z,4.53
2023-03-31T18:12:42.348Z,4.22
2023-03-31T18:15:10.975Z,5.07
2023-03-31T18:17:37.867Z,4.97
2023-03-31T18:20:05.516Z,5.47
2023-03-31T18:22:32.706Z,5.43
2023-03-31T18:24:59.574Z,5.22
2023-03-31T18:27:26.437Z,4.68
2023-03-31T18:29:53.339Z,4.80
2023-03-31T18:32:20.217Z,5.10
2023-03-31T18:34:48.582Z,5.68
2023-03-31T18:37:15.774Z,5.72
2023-03-31T18:39:42.637Z,6.70
2023-03-31T18:42:09.786Z,5.90
2023-03-31T18:44:36.517Z,5.95
2023-03-31T18:47:03.301Z,6.35
2023-03-31T18:49:30.138Z,5.22
2023-03-31T18:51:58.624Z,5.80
2023-03-31T18:54:25.402Z,6.00
2023-03-31T18:56:52.167Z,5.22
2023-03-31T18:59:18.849Z,6.35
2023-03-31T19:01:45.625Z,5.82
2023-03-31T19:04:12.360Z,5.97
2023-03-31T19:06:38.993Z,5.70
2023-03-31T19:09:06.006Z,6.20
2023-03-31T19:11:32.748Z,5.97
2023-03-31T19:13:59.575Z,6.50
2023-03-31T19:16:27.411Z,5.68
2023-03-31T19:18:54.461Z,7.57
2023-03-31T19:21:22.002Z,7.30
2023-03-31T19:23:48.642Z,6.53
2023-03-31T19:26:18.125Z,5.95
2023-03-31T19:28:45.319Z,6.63
2023-03-31T19:31:12.347Z,6.70
2023-03-31T19:33:39.119Z,7.47
2023-03-31T19:36:06.080Z,6.97
2023-03-31T19:38:36.516Z,7.60
2023-03-31T19:41:04.896Z,8.35
2023-03-31T19:43:32.095Z,7.93
2023-03-31T19:46:01.636Z,9.90
2023-03-31T19:48:33.418Z,9.18
2023-03-31T19:51:02.347Z,9.43
2023-03-31T19:53:30.365Z,7.38
2023-03-31T19:55:59.135Z,6.72
2023-03-31T19:58:27.078Z,8.43
2023-03-31T20:00:55.280Z,8.48
2023-03-31T20:03:24.161Z,12.20
2023-03-31T20:05:51.995Z,10.75
2023-03-31T20:08:18.727Z,11.15
2023-03-31T20:10:45.475Z,11.32
2023-03-31T20:13:12.666Z,10.35
2023-03-31T20:15:41.164Z,7.93
2023-03-31T20:18:08.542Z,8.60
2023-03-31T20:20:35.291Z,8.40
2023-03-31T20:23:03.431Z,9.00
2023-03-31T20:25:30.290Z,10.38
2023-03-31T20:27:57.275Z,9.80
2023-03-31T20:30:23.963Z,9.95
2023-03-31T20:32:51.114Z,8.95
2023-03-31T20:35:18.266Z,9.18
2023-03-31T20:37:44.985Z,9.10
2023-03-31T20:40:12.335Z,8.88
2023-03-31T20:42:39.205Z,9.02
2023-03-31T20:45:06.795Z,8.38
2023-03-31T20:47:35.209Z,8.57
2023-03-31T20:50:02.861Z,7.72
2023-03-31T20:52:29.605Z,8.85
2023-03-31T20:54:56.306Z,9.15
2023-03-31T20:57:24.353Z,11.45
2023-03-31T20:59:51.668Z,10.80
2023-03-31T21:02:18.884Z,10.80
2023-03-31T21:04:46.194Z,11.38
2023-03-31T21:07:12.908Z,11.50
2023-03-31T21:09:39.649Z,12.27
2023-03-31T21:12:07.202Z,11.88
2023-03-31T21:14:34.509Z,11.32
2023-03-31T21:17:01.417Z,11.73
2023-03-31T21:19:28.334Z,10.85
2023-03-31T21:21:54.976Z,10.65
2023-03-31T21:24:22.467Z,9.77
2023-03-31T21:26:49.354Z,8.60
2023-03-31T21:29:16.148Z,7.93
2023-03-31T21:31:45.001Z,7.28
2023-03-31T21:34:12.855Z,6.07
2023-03-31T21:36:39.520Z,5.68
2023-03-31T21:39:06.354Z,5.93
2023-03-31T21:41:33.128Z,5.18
2023-03-31T21:44:02.352Z,3.92
2023-03-31T21:46:31.177Z,4.28
2023-03-31T21:48:58.168Z,3.65
2023-03-31T21:51:25.663Z,3.70
2023-03-31T21:53:55.546Z,3.00
2023-03-31T21:56:24.441Z,2.90
2023-03-31T21:58:51.845Z,2.72
2023-03-31T22:01:18.943Z,2.30
2023-03-31T22:03:46.042Z,3.00
2023-03-31T22:06:13.145Z,2.72
2023-03-31T22:08:39.861Z,2.53
2023-03-31T22:11:08.483Z,3.13
2023-03-31T22:13:35.993Z,3.20
2023-03-31T22:16:03.274Z,2.50
2023-03-31T22:18:31.091Z,2.53
2023-03-31T22:20:58.914Z,2.95
2023-03-31T22:23:27.483Z,2.03
2023-03-31T22:25:54.482Z,2.22
2023-03-31T22:28:21.353Z,2.92
2023-03-31T22:30:49.356Z,2.28
2023-03-31T22:33:16.284Z,1.92
2023-03-31T22:35:43.687Z,2.13
2023-03-31T22:38:13.979Z,2.47
2023-03-31T22:40:41.142Z,2.65
2023-03-31T22:43:08.343Z,3.22
2023-03-31T22:45:37.871Z,2.97
2023-03-31T22:48:05.380Z,2.15
2023-03-31T22:50:32.824Z,2.50
2023-03-31T22:52:59.430Z,2.35
2023-03-31T22:55:26.173Z,2.90
2023-03-31T22:57:52.819Z,2.65
2023-03-31T23:00:19.661Z,2.20
2023-03-31T23:02:46.321Z,3.00
2023-03-31T23:05:13.248Z,2.88
2023-03-31T23:07:40.044Z,2.58
2023-03-31T23:10:07.404Z,2.30
2023-03-31T23:12:34.212Z,2.80
2023-03-31T23:15:00.933Z,3.00
2023-03-31T23:17:27.599Z,2.60
2023-03-31T23:19:54.305Z,2.65
2023-03-31T23:22:21.710Z,2.22
2023-03-31T23:24:49.455Z,2.78
2023-03-31T23:27:16.151Z,2.38
2023-03-31T23:29:42.925Z,2.60
2023-03-31T23:32:10.166Z,2.70
2023-03-31T23:34:41.478Z,2.47
2023-03-31T23:37:12.741Z,2.67
2023-03-31T23:39:39.762Z,2.78
2023-03-31T23:42:07.452Z,2.80
2023-03-31T23:44:34.489Z,2.88
2023-03-31T23:47:01.128Z,2.95
2023-03-31T23:49:30.796Z,2.88
2023-03-31T23:51:57.835Z,2.67
2023-03-31T23:54:24.522Z,2.28
2023-03-31T23:56:51.347Z,2.40
2023-03-31T23:59:18.037Z,2.80
